Time;durP1;ratioP1;P1;durP2;ratioP2;P2;SDS_P1;SDS_P2;PMS_P1;PMS_P2;Temp;Humidity;BMP_temperature;BMP_pressure;BME280_temperature;BME280_humidity;BME280_pressure;Samples;Min_cycle;Max_cycle;Signal;HPM_P1;HPM_P2
2022/04/29 00:02:21;;;;;;;10.10;4.05;;;7.40;99.90;;;;;;5093449;28;20039;-88
2022/04/29 00:04:47;;;;;;;13.98;4.95;;;7.40;99.90;;;;;;5093456;28;20023;-88
2022/04/29 00:07:27;;;;;;;8.57;4.05;;;7.40;99.90;;;;;;5092383;28;20472;-88
2022/04/29 00:09:52;;;;;;;9.25;5.38;;;7.40;99.90;;;;;;5093028;28;20030;-88
2022/04/29 00:12:19;;;;;;;12.45;5.05;;;7.30;99.90;;;;;;5065414;28;22441;-88
2022/04/29 00:14:45;;;;;;;13.02;5.45;;;7.20;99.90;;;;;;5041047;28;20049;-88
2022/04/29 00:17:11;;;;;;;9.57;4.63;;;7.20;99.90;;;;;;5035164;28;20488;-88
2022/04/29 00:19:48;;;;;;;9.25;4.60;;;7.20;99.90;;;;;;5052458;28;20430;-88
2022/04/29 00:22:13;;;;;;;7.70;4.95;;;7.20;99.90;;;;;;5052891;28;20037;-87
2022/04/29 00:25:14;;;;;;;11.88;5.45;;;7.10;99.90;;;;;;5052235;28;20108;-88
2022/04/29 00:27:41;;;;;;;10.23;4.68;;;7.10;99.90;;;;;;5048115;28;20473;-88
2022/04/29 00:30:20;;;;;;;10.30;5.10;;;7.10;99.90;;;;;;5027048;28;20384;-87
2022/04/29 00:32:45;;;;;;;11.38;5.32;;;7.00;99.90;;;;;;5032844;28;20037;-88
2022/04/29 00:35:26;;;;;;;11.40;5.57;;;6.90;99.90;;;;;;5048571;28;20087;-88
2022/04/29 00:37:54;;;;;;;11.40;5.13;;;6.90;99.90;;;;;;5052621;28;20032;-88
2022/04/29 00:40:23;;;;;;;19.75;6.60;;;6.90;99.90;;;;;;5052419;28;20055;-87
2022/04/29 00:42:53;;;;;;;10.05;5.25;;;6.90;99.90;;;;;;5031240;28;20024;-87
2022/04/29 00:45:22;;;;;;;12.25;5.88;;;6.80;99.90;;;;;;5023770;28;20103;-87
2022/04/29 00:47:49;;;;;;;10.57;5.28;;;6.80;99.90;;;;;;5052775;28;20109;-87
2022/04/29 00:50:43;;;;;;;13.77;5.47;;;6.70;99.90;;;;;;5035592;28;20033;-87
2022/04/29 00:53:11;;;;;;;12.27;5.50;;;6.80;99.90;;;;;;5047543;28;20396;-88
2022/04/29 00:55:44;;;;;;;14.70;5.45;;;6.70;99.90;;;;;;5049039;28;20059;-87
2022/04/29 00:58:16;;;;;;;15.98;6.68;;;6.70;99.90;;;;;;5052621;28;20029;-87
2022/04/29 01:00:42;;;;;;;11.38;5.50;;;6.60;99.90;;;;;;5048434;28;20018;-87
2022/04/29 01:03:14;;;;;;;13.75;6.57;;;6.60;99.90;;;;;;5033477;28;20033;-87
2022/04/29 01:05:41;;;;;;;13.55;5.95;;;6.60;99.90;;;;;;5052238;28;20017;-87
2022/04/29 01:08:28;;;;;;;10.82;5.70;;;6.60;99.90;;;;;;5051506;28;20028;-87
2022/04/29 01:10:54;;;;;;;10.95;6.22;;;6.60;99.90;;;;;;5051994;28;20087;-87
2022/04/29 01:13:20;;;;;;;13.27;6.25;;;6.60;99.90;;;;;;5063737;28;20052;-86
2022/04/29 01:15:48;;;;;;;11.77;6.28;;;6.60;99.90;;;;;;5065459;28;20035;-85
2022/04/29 01:18:16;;;;;;;12.27;6.20;;;6.50;99.90;;;;;;5057037;28;20512;-86
2022/04/29 01:21:11;;;;;;;11.15;5.57;;;6.50;99.90;;;;;;5069965;28;20029;-87
2022/04/29 01:23:50;;;;;;;16.52;6.25;;;6.50;99.90;;;;;;5065050;28;20523;-86
2022/04/29 01:26:16;;;;;;;13.45;6.05;;;6.50;99.90;;;;;;5071155;28;20060;-86
2022/04/29 01:28:44;;;;;;;14.93;6.78;;;6.50;99.90;;;;;;5067139;28;20851;-86
2022/04/29 01:31:15;;;;;;;10.82;6.03;;;6.40;99.90;;;;;;5062763;28;20393;-87
2022/04/29 01:33:53;;;;;;;15.73;5.90;;;6.40;99.90;;;;;;5060807;28;20099;-87
2022/04/29 01:36:19;;;;;;;8.43;5.80;;;6.40;99.90;;;;;;5071629;28;20024;-87
2022/04/29 01:38:45;;;;;;;18.88;7.57;;;6.40;99.90;;;;;;5072004;28;20370;-87
2022/04/29 01:41:19;;;;;;;10.52;7.43;;;6.30;99.90;;;;;;5056610;28;20429;-87
2022/04/29 01:43:46;;;;;;;19.80;7.80;;;6.30;99.90;;;;;;5052290;28;20034;-87
2022/04/29 01:46:38;;;;;;;18.13;7.68;;;6.30;99.90;;;;;;5070948;28;20366;-87
2022/04/29 01:49:03;;;;;;;14.23;6.60;;;6.30;99.90;;;;;;5052722;28;20017;-87
2022/04/29 01:51:29;;;;;;;20.13;8.65;;;6.20;99.90;;;;;;5062920;28;20021;-87
2022/04/29 01:53:54;;;;;;;17.95;8.48;;;6.10;99.90;;;;;;5070516;28;20024;-86
2022/04/29 01:56:32;;;;;;;15.05;7.03;;;6.20;99.90;;;;;;5070584;28;20368;-87
2022/04/29 01:59:07;;;;;;;13.88;7.10;;;6.20;99.90;;;;;;5072494;28;20029;-87
2022/04/29 02:01:34;;;;;;;13.38;8.20;;;6.20;99.90;;;;;;5075022;28;20021;-87
2022/04/29 02:04:21;;;;;;;12.82;7.70;;;6.20;99.90;;;;;;5066536;28;20040;-87
2022/04/29 02:06:47;;;;;;;15.10;8.93;;;6.20;99.90;;;;;;5075533;28;20029;-87
2022/04/29 02:09:12;;;;;;;15.50;7.80;;;6.20;99.90;;;;;;5057122;28;20367;-87
2022/04/29 02:11:39;;;;;;;12.90;7.43;;;6.20;99.90;;;;;;5055156;28;20048;-87
2022/04/29 02:14:05;;;;;;;19.70;8.20;;;6.20;99.90;;;;;;5054294;28;20052;-87
2022/04/29 02:16:30;;;;;;;18.45;7.28;;;6.20;99.90;;;;;;5037041;28;20021;-87
2022/04/29 02:19:42;;;;;;;12.68;7.10;;;6.20;99.90;;;;;;5041641;28;20103;-86
2022/04/29 02:22:08;;;;;;;11.05;7.57;;;6.20;99.90;;;;;;5052479;28;20493;-87
2022/04/29 02:24:39;;;;;;;13.65;7.60;;;6.20;99.90;;;;;;5049595;28;20043;-87
2022/04/29 02:27:06;;;;;;;17.50;9.30;;;6.20;99.90;;;;;;5053134;28;20029;-87
2022/04/29 02:29:32;;;;;;;14.30;7.78;;;6.10;99.90;;;;;;5053647;28;20608;-87
2022/04/29 02:32:08;;;;;;;22.90;8.35;;;6.10;99.90;;;;;;5054615;28;20104;-87
2022/04/29 02:34:36;;;;;;;;;;;6.10;99.90;;;;;;5055220;28;20540;-86
2022/04/29 02:37:12;;;;;;;12.38;6.78;;;6.10;99.90;;;;;;5054580;28;19908;-87
2022/04/29 02:39:37;;;;;;;;;;;6.10;99.90;;;;;;5037506;28;20389;-87
2022/04/29 02:42:06;;;;;;;17.15;7.18;;;6.10;99.90;;;;;;5052595;28;19909;-86
2022/04/29 02:44:32;;;;;;;12.40;6.90;;;6.10;99.90;;;;;;5030974;28;20136;-87
2022/04/29 02:47:16;;;;;;;16.40;8.13;;;6.10;99.90;;;;;;5054044;28;20096;-87
2022/04/29 02:49:53;;;;;;;11.68;7.50;;;6.10;99.90;;;;;;5053851;28;20025;-86
2022/04/29 02:52:18;;;;;;;14.60;7.90;;;6.00;99.90;;;;;;5033417;28;20119;-86
2022/04/29 02:54:47;;;;;;;9.48;7.13;;;6.00;99.90;;;;;;5055272;28;20116;-87
2022/04/29 02:57:14;;;;;;;12.27;7.40;;;6.00;99.90;;;;;;5052853;28;20040;-86
2022/04/29 02:59:40;;;;;;;13.23;7.50;;;6.00;99.90;;;;;;5053068;28;20028;-86
2022/04/29 03:02:06;;;;;;;15.00;8.27;;;6.00;99.90;;;;;;5034361;28;20029;-86
2022/04/29 03:04:33;;;;;;;11.52;6.95;;;6.00;99.90;;;;;;5034497;28;20022;-87
2022/04/29 03:07:00;;;;;;;13.15;7.88;;;5.90;99.90;;;;;;5052423;28;20083;-86
2022/04/29 03:09:32;;;;;;;11.43;7.28;;;5.90;99.90;;;;;;5053685;28;20016;-86
2022/04/29 03:11:58;;;;;;;13.23;8.02;;;5.90;99.90;;;;;;5036058;28;20064;-86
2022/04/29 03:14:23;;;;;;;11.73;7.50;;;5.90;99.90;;;;;;5057939;28;20073;-87
2022/04/29 03:20:09;;;;;;;18.17;7.53;;;5.90;99.90;;;;;;5010331;28;20044;-86
2022/04/29 03:22:35;;;;;;;18.50;8.73;;;5.80;99.90;;;;;;5012116;28;20041;-85
2022/04/29 03:25:00;;;;;;;16.83;8.10;;;5.80;99.90;;;;;;4998514;28;20486;-86
2022/04/29 03:27:39;;;;;;;17.48;9.43;;;5.80;99.90;;;;;;5010350;28;20030;-86
2022/04/29 03:30:14;;;;;;;13.10;8.13;;;5.80;99.90;;;;;;5004797;28;20086;-86
2022/04/29 03:32:39;;;;;;;13.93;8.35;;;5.80;99.90;;;;;;5038415;28;20590;-86
2022/04/29 03:36:00;;;;;;;14.65;7.30;;;5.80;99.90;;;;;;5070330;28;20112;-86
2022/04/29 03:38:26;;;;;;;15.75;7.50;;;5.90;99.90;;;;;;5073298;28;20534;-87
2022/04/29 03:40:53;;;;;;;11.32;7.20;;;5.90;99.90;;;;;;5072095;28;20020;-87
2022/04/29 03:43:30;;;;;;;14.95;7.53;;;5.90;99.90;;;;;;5072628;28;20021;-87
2022/04/29 03:45:56;;;;;;;12.32;8.02;;;5.90;99.90;;;;;;5070625;28;20024;-88
2022/04/29 03:51:29;;;;;;;10.63;6.75;;;5.80;99.90;;;;;;5072054;28;20149;-86
2022/04/29 03:54:15;;;;;;;10.77;7.22;;;5.80;99.90;;;;;;5072963;28;20104;-88
2022/04/29 03:56:40;;;;;;;14.52;6.93;;;5.80;99.90;;;;;;5053904;28;20082;-87
2022/04/29 03:59:06;;;;;;;11.52;7.03;;;5.80;99.90;;;;;;5072677;28;21369;-86
2022/04/29 04:01:39;;;;;;;10.63;6.55;;;5.80;99.90;;;;;;5054475;28;20397;-87
2022/04/29 04:04:06;;;;;;;7.80;6.60;;;5.80;99.90;;;;;;5072923;28;20044;-86
2022/04/29 04:06:49;;;;;;;8.73;6.32;;;5.80;99.90;;;;;;5065115;28;20035;-86
2022/04/29 04:09:16;;;;;;;10.77;6.97;;;5.90;99.90;;;;;;5071523;28;20035;-87
2022/04/29 04:11:41;;;;;;;9.60;6.25;;;5.90;99.90;;;;;;5072310;28;21761;-87
2022/04/29 04:14:08;;;;;;;9.43;6.38;;;5.90;99.90;;;;;;5071268;28;20095;-87
2022/04/29 04:16:42;;;;;;;26.17;9.48;;;5.90;99.90;;;;;;5072849;28;20028;-87
2022/04/29 04:19:07;;;;;;;18.83;8.38;;;5.90;99.90;;;;;;5072237;28;20108;-87
2022/04/29 04:21:33;;;;;;;25.88;10.00;;;6.00;99.90;;;;;;5065955;28;20501;-87
2022/04/29 04:24:05;;;;;;;12.45;7.20;;;6.00;99.90;;;;;;5072983;28;20028;-86
2022/04/29 04:26:31;;;;;;;10.65;7.20;;;6.00;99.90;;;;;;5072869;28;20017;-87
2022/04/29 04:29:23;;;;;;;14.88;7.78;;;6.00;99.90;;;;;;5072692;28;20074;-86
2022/04/29 04:31:49;;;;;;;10.93;6.82;;;6.00;99.90;;;;;;5071859;28;20498;-86
2022/04/29 04:34:49;;;;;;;14.13;6.65;;;6.00;99.90;;;;;;5054666;28;20028;-86
2022/04/29 04:37:17;;;;;;;16.65;7.40;;;6.00;99.90;;;;;;5062355;28;20028;-87
2022/04/29 04:39:43;;;;;;;13.20;7.40;;;6.00;99.90;;;;;;5068468;28;20846;-87
2022/04/29 04:42:08;;;;;;;17.95;8.15;;;6.10;99.90;;;;;;5034800;28;20091;-87
2022/04/29 04:44:39;;;;;;;10.18;6.93;;;6.10;99.90;;;;;;5052203;28;20500;-87
2022/04/29 04:47:08;;;;;;;10.27;7.10;;;6.00;99.90;;;;;;5050011;28;20404;-87
2022/04/29 04:49:48;;;;;;;9.57;6.80;;;6.10;99.90;;;;;;5050845;28;20729;-87
2022/04/29 04:52:13;;;;;;;17.73;8.07;;;6.10;99.90;;;;;;5071266;28;20020;-87
2022/04/29 04:54:43;;;;;;;9.30;6.25;;;6.10;99.90;;;;;;5065582;28;20039;-87
2022/04/29 04:57:08;;;;;;;14.73;8.25;;;6.10;99.90;;;;;;5072689;28;20090;-87
2022/04/29 04:59:53;;;;;;;10.70;7.13;;;6.20;99.90;;;;;;5065135;28;20025;-87
2022/04/29 05:02:18;;;;;;;9.82;7.00;;;6.20;99.90;;;;;;5064010;28;20087;-87
2022/04/29 05:04:57;;;;;;;16.30;7.55;;;6.30;99.90;;;;;;5070396;28;20025;-87
2022/04/29 05:07:23;;;;;;;14.20;6.20;;;6.40;99.90;;;;;;5066746;28;20350;-87
2022/04/29 05:10:00;;;;;;;9.27;6.38;;;6.40;99.90;;;;;;5071843;28;20029;-87
2022/04/29 05:12:27;;;;;;;22.88;8.30;;;6.50;99.90;;;;;;5071263;28;20036;-87
2022/04/29 05:14:52;;;;;;;11.38;7.10;;;6.50;99.90;;;;;;5069474;28;20098;-87
2022/04/29 05:17:19;;;;;;;20.25;7.80;;;6.60;99.90;;;;;;5053856;28;20017;-87
2022/04/29 05:19:44;;;;;;;12.70;7.43;;;6.60;99.90;;;;;;5052745;28;20028;-87
2022/04/29 05:22:10;;;;;;;16.48;7.95;;;6.70;99.90;;;;;;5066093;28;20029;-87
2022/04/29 05:24:36;;;;;;;16.40;7.60;;;6.80;99.90;;;;;;5070572;28;20056;-88
2022/04/29 05:27:02;;;;;;;12.82;6.47;;;6.80;99.90;;;;;;5066128;28;20139;-87
2022/04/29 05:29:27;;;;;;;11.57;7.03;;;6.90;99.90;;;;;;5052482;28;20419;-87
2022/04/29 05:35:15;;;;;;;12.82;6.28;;;6.90;99.90;;;;;;5076112;28;20031;-87
2022/04/29 05:37:45;;;;;;;14.10;5.72;;;7.10;99.90;;;;;;5075470;28;20556;-87
2022/04/29 05:42:55;;;;;;;17.25;6.03;;;7.10;99.90;;;;;;5076088;28;20040;-87
2022/04/29 05:45:21;;;;;;;7.53;5.65;;;7.10;99.90;;;;;;5076149;28;20021;-87
2022/04/29 05:47:47;;;;;;;14.60;7.57;;;7.10;99.90;;;;;;5071721;28;20092;-88
2022/04/29 05:50:12;;;;;;;12.27;6.70;;;7.10;99.90;;;;;;5044805;28;20115;-87
2022/04/29 05:52:38;;;;;;;7.68;5.57;;;7.20;99.90;;;;;;5074552;28;20090;-87
2022/04/29 05:55:07;;;;;;;19.75;7.93;;;7.20;99.90;;;;;;5095265;28;20115;-87
2022/04/29 05:57:33;;;;;;;13.60;6.65;;;7.20;99.90;;;;;;5086650;28;20064;-87
2022/04/29 06:00:02;;;;;;;15.43;6.90;;;7.20;99.90;;;;;;5094800;28;20034;-88
2022/04/29 06:02:33;;;;;;;10.43;5.60;;;7.20;99.90;;;;;;5085705;28;20020;-88
2022/04/29 06:05:03;;;;;;;15.00;6.00;;;7.20;99.90;;;;;;5094201;28;20035;-88
2022/04/29 06:07:28;;;;;;;20.58;7.50;;;7.30;99.90;;;;;;5095224;28;20016;-87
2022/04/29 06:10:19;;;;;;;10.15;6.25;;;7.30;99.90;;;;;;5093650;28;20066;-88
2022/04/29 06:12:56;;;;;;;10.52;5.82;;;7.30;99.90;;;;;;5085007;28;20154;-88
2022/04/29 06:15:22;;;;;;;10.52;5.57;;;7.30;99.90;;;;;;5080947;28;20028;-88
2022/04/29 06:17:56;;;;;;;10.70;5.70;;;7.40;99.90;;;;;;5076730;28;20028;-88
2022/04/29 06:20:21;;;;;;;8.75;5.60;;;7.40;99.90;;;;;;5076305;28;20078;-88
2022/04/29 06:22:51;;;;;;;16.70;6.03;;;7.50;99.90;;;;;;5092819;28;20468;-88
2022/04/29 06:25:20;;;;;;;10.85;5.63;;;7.50;99.90;;;;;;5095130;28;20032;-88
2022/04/29 06:27:46;;;;;;;7.32;5.35;;;7.50;99.90;;;;;;5092601;28;20028;-88
2022/04/29 06:30:13;;;;;;;19.17;7.82;;;7.60;99.90;;;;;;5091144;28;20076;-89
2022/04/29 06:32:38;;;;;;;11.35;6.55;;;7.70;99.90;;;;;;5075644;28;20487;-88
2022/04/29 06:35:09;;;;;;;34.55;10.38;;;7.80;99.90;;;;;;5087381;28;20034;-88
2022/04/29 06:37:36;;;;;;;20.63;6.85;;;7.90;99.90;;;;;;5088107;28;20115;-88
2022/04/29 06:40:03;;;;;;;15.68;6.78;;;8.00;99.90;;;;;;5089409;28;20391;-88
2022/04/29 06:42:32;;;;;;;21.13;7.53;;;8.10;99.90;;;;;;5092835;28;20024;-88
2022/04/29 06:44:59;;;;;;;16.67;6.53;;;8.20;99.90;;;;;;5077066;28;20020;-88
2022/04/29 06:47:24;;;;;;;21.73;6.40;;;8.30;99.90;;;;;;5094988;28;20020;-88
2022/04/29 06:49:51;;;;;;;15.55;6.70;;;8.40;99.90;;;;;;5076756;28;20020;-88
2022/04/29 06:52:29;;;;;;;19.27;6.68;;;8.50;99.90;;;;;;5095003;28;20020;-88
2022/04/29 06:54:55;;;;;;;29.42;7.18;;;8.50;99.90;;;;;;5091925;28;20025;-88
2022/04/29 06:57:37;;;;;;;13.10;5.85;;;8.70;99.90;;;;;;5074845;28;20028;-88
2022/04/29 07:00:04;;;;;;;15.68;5.97;;;8.70;99.90;;;;;;5074799;28;20035;-88
2022/04/29 07:02:31;;;;;;;11.77;6.22;;;8.80;99.90;;;;;;5074564;28;20020;-82
2022/04/29 07:04:56;;;;;;;19.17;7.75;;;8.80;99.90;;;;;;5074426;28;20028;-82
2022/04/29 07:07:24;;;;;;;15.35;6.85;;;8.90;99.90;;;;;;5074645;28;20025;-82
2022/04/29 07:09:50;;;;;;;18.35;6.80;;;8.90;99.90;;;;;;5074525;28;20031;-82
2022/04/29 07:12:15;;;;;;;12.38;6.38;;;9.00;99.90;;;;;;5078048;28;20036;-82
2022/04/29 07:14:41;;;;;;;14.32;6.63;;;9.00;99.90;;;;;;5074362;28;20111;-82
2022/04/29 07:17:10;;;;;;;13.93;6.88;;;9.10;99.90;;;;;;5074357;28;20031;-82
2022/04/29 07:19:38;;;;;;;15.93;7.68;;;9.10;99.90;;;;;;5074214;28;20028;-82
2022/04/29 07:22:13;;;;;;;15.05;7.30;;;9.10;99.90;;;;;;5074164;28;20028;-82
2022/04/29 07:24:39;;;;;;;17.50;7.90;;;9.20;99.90;;;;;;5055651;28;20048;-82
2022/04/29 07:27:05;;;;;;;17.00;7.75;;;9.30;99.90;;;;;;5068835;28;20364;-82
2022/04/29 07:29:31;;;;;;;14.73;7.00;;;9.40;99.90;;;;;;5072571;28;20147;-82
2022/04/29 07:31:57;;;;;;;15.57;6.63;;;9.40;99.90;;;;;;5071967;28;20166;-82
2022/04/29 07:41:44;;;;;;;16.33;6.57;;;9.50;99.90;;;;;;5068165;28;20189;-82
2022/04/29 07:42:37;;;;;;;21.20;8.90;;;9.70;99.90;;;;;;5068867;28;20046;-82
2022/04/29 07:45:03;;;;;;;15.13;7.07;;;9.80;99.90;;;;;;5072687;28;20100;-83
2022/04/29 07:47:29;;;;;;;17.77;6.68;;;9.80;99.90;;;;;;5071764;28;20519;-82
2022/04/29 07:49:54;;;;;;;19.27;8.60;;;9.90;99.90;;;;;;5073698;28;20447;-82
2022/04/29 07:52:21;;;;;;;29.33;10.20;;;9.90;99.90;;;;;;5071002;28;20021;-82
2022/04/29 07:54:47;;;;;;;23.10;8.90;;;10.10;99.90;;;;;;5065223;28;20495;-82
2022/04/29 07:57:14;;;;;;;23.48;10.13;;;10.20;99.90;;;;;;5071773;28;20099;-83
2022/04/29 07:59:39;;;;;;;22.13;8.85;;;10.30;99.90;;;;;;5071572;28;20032;-84
2022/04/29 08:02:06;;;;;;;15.45;7.35;;;10.50;99.90;;;;;;5063533;28;20103;-83
2022/04/29 08:04:32;;;;;;;20.80;8.65;;;10.50;99.90;;;;;;5061148;28;20017;-83
2022/04/29 08:06:59;;;;;;;24.15;7.85;;;10.60;99.90;;;;;;5069956;28;20073;-83
2022/04/29 08:09:25;;;;;;;16.48;8.02;;;10.70;99.90;;;;;;5070632;28;20377;-84
2022/04/29 08:11:53;;;;;;;22.33;9.38;;;10.70;99.90;;;;;;5072300;28;20025;-83
2022/04/29 08:14:20;;;;;;;20.63;8.45;;;10.70;99.90;;;;;;5067794;28;20179;-83
2022/04/29 08:16:46;;;;;;;23.88;8.43;;;10.80;99.90;;;;;;5061893;28;20452;-83
2022/04/29 08:19:11;;;;;;;24.80;9.73;;;10.80;99.90;;;;;;5066500;28;20021;-83
2022/04/29 08:21:37;;;;;;;22.10;9.38;;;10.80;99.90;;;;;;5069937;28;20024;-83
2022/04/29 08:24:05;;;;;;;17.80;7.85;;;10.80;99.90;;;;;;5052423;28;20040;-84
2022/04/29 08:26:30;;;;;;;21.05;8.88;;;10.80;99.90;;;;;;5052168;28;20027;-83
2022/04/29 08:28:58;;;;;;;19.88;7.32;;;10.90;99.90;;;;;;5067200;28;20021;-83
2022/04/29 08:31:24;;;;;;;20.92;7.50;;;10.90;99.90;;;;;;5060618;28;20036;-83
2022/04/29 08:33:51;;;;;;;19.10;8.50;;;10.90;99.90;;;;;;5059524;28;20024;-83
2022/04/29 08:36:17;;;;;;;26.63;9.60;;;11.00;99.90;;;;;;5073503;28;20035;-88
2022/04/29 08:38:43;;;;;;;19.60;8.85;;;11.10;99.90;;;;;;5061312;28;20095;-89
2022/04/29 08:41:10;;;;;;;27.63;9.27;;;11.20;99.90;;;;;;5063071;28;20511;-88
2022/04/29 08:43:38;;;;;;;23.98;8.82;;;11.30;99.90;;;;;;5052912;28;20521;-89
2022/04/29 08:46:05;;;;;;;19.60;8.15;;;11.30;99.90;;;;;;5065523;28;20052;-89
2022/04/29 08:48:33;;;;;;;14.55;7.32;;;11.40;99.90;;;;;;5064580;28;20017;-88
2022/04/29 08:50:59;;;;;;;17.10;7.63;;;11.50;99.90;;;;;;5071002;28;20357;-88
2022/04/29 08:53:25;;;;;;;17.42;7.65;;;11.70;99.90;;;;;;5068168;28;20025;-89
2022/04/29 08:58:39;;;;;;;15.90;7.25;;;11.90;99.90;;;;;;5068949;28;20131;-88
2022/04/29 09:01:16;;;;;;;20.02;8.45;;;12.00;99.90;;;;;;5069231;28;20115;-89
2022/04/29 09:03:51;;;;;;;17.33;6.80;;;12.10;99.90;;;;;;5068519;28;20441;-89
2022/04/29 09:06:17;;;;;;;17.30;7.68;;;12.20;99.90;;;;;;5079037;28;20445;-91
2022/04/29 09:08:47;;;;;;;13.10;6.90;;;12.20;99.90;;;;;;5079241;28;20025;-89
2022/04/29 09:11:35;;;;;;;17.40;7.90;;;12.20;99.90;;;;;;5078200;28;20503;-89
2022/04/29 09:14:24;;;;;;;19.83;7.30;;;12.30;99.90;;;;;;5061356;28;20097;-89
2022/04/29 09:16:50;;;;;;;22.75;7.90;;;12.40;99.90;;;;;;5079456;28;20100;-89
2022/04/29 09:19:35;;;;;;;20.70;8.23;;;12.50;99.90;;;;;;5079315;28;20027;-89
2022/04/29 09:22:05;;;;;;;16.77;8.50;;;12.60;99.90;;;;;;5061248;28;20054;-89
2022/04/29 09:24:32;;;;;;;15.73;7.32;;;12.60;99.90;;;;;;5078908;28;20024;-89
2022/04/29 09:27:03;;;;;;;23.90;8.10;;;12.60;99.90;;;;;;5061388;28;20472;-89
2022/04/29 09:29:40;;;;;;;17.00;6.63;;;12.70;99.90;;;;;;5078136;28;20025;-89
2022/04/29 09:32:06;;;;;;;21.60;7.53;;;12.90;99.90;;;;;;5075782;28;20377;-88
2022/04/29 09:34:58;;;;;;;24.65;7.43;;;13.00;99.90;;;;;;5078852;28;20032;-89
2022/04/29 09:37:28;;;;;;;25.60;9.20;;;13.10;99.90;;;;;;5078163;28;20033;-88
2022/04/29 09:40:02;;;;;;;29.00;8.05;;;13.20;99.90;;;;;;5078865;28;20115;-89
2022/04/29 09:42:59;;;;;;;13.07;6.55;;;13.20;99.90;;;;;;5079264;28;20028;-89
2022/04/29 09:46:07;;;;;;;20.45;7.05;;;13.30;99.90;;;;;;5077621;28;20028;-89
2022/04/29 09:52:17;;;;;;;19.40;6.90;;;13.50;99.90;;;;;;5079323;28;20089;-89
2022/04/29 09:54:42;;;;;;;16.65;6.85;;;13.70;99.90;;;;;;5077921;28;20043;-89
2022/04/29 09:57:31;;;;;;;13.23;6.78;;;13.90;99.90;;;;;;5077996;28;20033;-90
2022/04/29 10:00:00;;;;;;;14.77;6.35;;;14.10;99.90;;;;;;5079119;28;20452;-89
2022/04/29 10:02:36;;;;;;;15.25;6.38;;;14.10;99.90;;;;;;5078919;28;20029;-89
2022/04/29 10:05:02;;;;;;;25.67;7.00;;;14.10;99.90;;;;;;5077861;28;20480;-89
2022/04/29 10:07:37;;;;;;;19.08;6.65;;;14.20;99.90;;;;;;5079959;28;20026;-89
2022/04/29 10:10:05;;;;;;;14.75;6.47;;;14.20;99.90;;;;;;5077640;28;20024;-93
2022/04/29 10:12:33;;;;;;;15.23;5.85;;;14.20;99.90;;;;;;5077474;28;20045;-90
2022/04/29 10:14:59;;;;;;;17.23;6.20;;;14.20;99.90;;;;;;5079246;28;20393;-89
2022/04/29 10:23:11;;;;;;;14.82;6.25;;;14.40;99.90;;;;;;5076040;28;20438;-91
2022/04/29 10:25:45;;;;;;;12.85;6.13;;;14.40;99.90;;;;;;5057893;28;20056;-90
2022/04/29 10:28:16;;;;;;;19.55;6.18;;;14.50;99.90;;;;;;5074794;28;20016;-90
2022/04/29 10:31:05;;;;;;;16.63;5.95;;;14.60;99.90;;;;;;5075939;28;20380;-91
2022/04/29 10:33:30;;;;;;;19.05;6.90;;;14.70;99.90;;;;;;5057884;28;20021;-90
2022/04/29 10:36:44;;;;;;;22.60;6.90;;;14.80;99.90;;;;;;5075720;28;20502;-89
2022/04/29 10:43:21;;;;;;;14.65;6.82;;;15.10;99.90;;;;;;5076425;28;20039;-92
2022/04/29 10:46:05;;;;;;;14.63;6.03;;;15.20;99.90;;;;;;5074891;28;20502;-89
2022/04/29 10:49:15;;;;;;;12.45;5.80;;;15.20;99.90;;;;;;5074306;28;20025;-90
2022/04/29 10:51:59;;;;;;;12.98;5.97;;;15.10;99.90;;;;;;5074579;28;20024;-89
2022/04/29 10:54:42;;;;;;;15.45;6.50;;;15.20;99.90;;;;;;5075491;28;20019;-91
2022/04/29 10:57:12;;;;;;;22.58;7.38;;;15.30;99.90;;;;;;5074293;28;20020;-90
2022/04/29 11:00:22;;;;;;;17.25;6.68;;;15.30;99.90;;;;;;5074949;28;20103;-92
2022/04/29 11:02:47;;;;;;;22.35;6.95;;;15.30;99.90;;;;;;5077758;28;20050;-90
2022/04/29 11:05:35;;;;;;;18.98;6.45;;;15.40;99.90;;;;;;5094058;28;20020;-90
2022/04/29 11:08:21;;;;;;;21.75;7.15;;;15.40;99.90;;;;;;5095797;28;20020;-92
2022/04/29 11:10:58;;;;;;;13.27;6.97;;;15.40;99.90;;;;;;5095876;28;20483;-92
2022/04/29 11:13:27;;;;;;;23.65;7.80;;;15.40;99.90;;;;;;5090453;28;20098;-90
2022/04/29 11:16:05;;;;;;;17.70;7.15;;;15.40;99.90;;;;;;5075501;28;20020;-92
2022/04/29 11:18:31;;;;;;;22.83;7.75;;;15.30;99.90;;;;;;5090650;28;20020;-90
2022/04/29 11:26:54;;;;;;;10.27;5.63;;;15.30;99.90;;;;;;5074316;28;20027;-90
2022/04/29 11:29:19;;;;;;;13.23;6.72;;;15.30;99.90;;;;;;5073892;28;20027;-89
2022/04/29 11:32:37;;;;;;;18.38;7.13;;;15.30;99.90;;;;;;5074507;28;20021;-90
2022/04/29 11:35:05;;;;;;;;;;;15.20;99.90;;;;;;5074965;28;20025;-89
2022/04/29 11:37:53;;;;;;;14.70;7.13;;;15.30;99.90;;;;;;5074977;28;19904;-90
2022/04/29 11:40:18;;;;;;;14.52;7.20;;;15.30;99.90;;;;;;5050733;28;20051;-91
2022/04/29 11:43:23;;;;;;;18.10;7.03;;;15.30;99.90;;;;;;5074102;28;20056;-89
2022/04/29 11:46:12;;;;;;;23.92;7.43;;;15.40;99.90;;;;;;5073434;28;20376;-89
2022/04/29 11:48:57;;;;;;;13.23;6.82;;;15.40;99.90;;;;;;5036183;28;20573;-90
2022/04/29 11:51:23;;;;;;;15.85;5.93;;;15.50;99.90;;;;;;5036198;28;20028;-90
2022/04/29 11:54:06;;;;;;;14.77;6.90;;;15.60;99.90;;;;;;5035924;28;20037;-89
2022/04/29 11:59:28;;;;;;;12.32;7.53;;;15.70;99.90;;;;;;5053940;28;20039;-89
2022/04/29 12:02:16;;;;;;;15.98;7.38;;;15.70;99.90;;;;;;5053872;28;20029;-92
2022/04/29 12:05:06;;;;;;;21.40;7.97;;;15.60;99.90;;;;;;5053568;28;20476;-89
2022/04/29 12:07:44;;;;;;;30.27;9.88;;;15.60;99.90;;;;;;5035859;28;20112;-88
2022/04/29 12:10:18;;;;;;;25.20;7.60;;;15.50;99.90;;;;;;5035536;28;20064;-89
2022/04/29 12:12:47;;;;;;;17.38;8.05;;;15.50;99.90;;;;;;5053186;28;20139;-89
2022/04/29 12:15:16;;;;;;;15.07;6.40;;;15.50;99.90;;;;;;5053608;28;20021;-89
2022/04/29 12:17:45;;;;;;;17.23;6.78;;;15.60;99.90;;;;;;5039826;28;20024;-89
2022/04/29 12:20:19;;;;;;;16.50;6.32;;;15.70;99.90;;;;;;5034764;28;20061;-90
2022/04/29 12:23:11;;;;;;;20.33;7.25;;;15.70;99.90;;;;;;5042356;28;20063;-89
2022/04/29 12:25:45;;;;;;;19.25;7.95;;;15.80;99.90;;;;;;5036420;28;20025;-89
2022/04/29 12:28:22;;;;;;;22.38;7.63;;;15.90;99.90;;;;;;5028817;28;20032;-89
2022/04/29 12:36:47;;;;;;;16.80;7.77;;;16.00;99.90;;;;;;5052983;28;20107;-88
2022/04/29 12:39:15;;;;;;;18.33;7.93;;;16.10;99.90;;;;;;5020803;28;20026;-89
2022/04/29 12:41:42;;;;;;;18.05;7.40;;;16.20;99.90;;;;;;5052444;28;20017;-89
2022/04/29 12:47:22;;;;;;;15.30;6.28;;;16.40;99.90;;;;;;5051655;28;20036;-92
2022/04/29 12:49:48;;;;;;;19.25;7.47;;;16.60;99.90;;;;;;5035193;28;20031;-89
2022/04/29 12:52:13;;;;;;;26.50;6.97;;;16.70;99.90;;;;;;5044353;28;20037;-90
2022/04/29 12:55:12;;;;;;;16.45;7.30;;;16.80;99.90;;;;;;5048978;28;20447;-89
2022/04/29 12:57:38;;;;;;;16.00;7.13;;;16.80;99.90;;;;;;5033461;28;20023;-92
2022/04/29 13:00:04;;;;;;;19.83;7.35;;;16.70;99.90;;;;;;5049204;28;20115;-90
2022/04/29 13:02:38;;;;;;;19.27;7.10;;;16.80;99.90;;;;;;5052827;28;20068;-91
2022/04/29 13:05:04;;;;;;;17.90;6.82;;;16.80;99.90;;;;;;5044977;28;20079;-90
2022/04/29 13:07:30;;;;;;;24.83;7.28;;;16.80;99.90;;;;;;5032256;28;20017;-89
2022/04/29 13:10:02;;;;;;;16.88;7.40;;;16.90;99.90;;;;;;5031508;28;20029;-88
2022/04/29 13:12:38;;;;;;;17.27;6.22;;;17.00;99.90;;;;;;5048625;28;20469;-90
2022/04/29 13:15:04;;;;;;;23.50;6.45;;;17.00;99.90;;;;;;5028858;28;20464;-89
2022/04/29 13:17:42;;;;;;;15.55;6.57;;;17.10;99.90;;;;;;5030897;28;20029;-90
2022/04/29 13:20:09;;;;;;;17.92;6.78;;;17.00;99.90;;;;;;5031424;28;20036;-89
2022/04/29 13:22:39;;;;;;;19.80;7.32;;;17.10;99.90;;;;;;5034791;28;20041;-89
2022/04/29 13:25:06;;;;;;;15.98;6.60;;;17.10;97.20;;;;;;5051397;28;20485;-90
2022/04/29 13:27:34;;;;;;;18.00;5.75;;;17.00;99.00;;;;;;5033861;28;20485;-88
2022/04/29 13:30:31;;;;;;;19.02;6.28;;;17.00;99.90;;;;;;5032807;28;20109;-90
2022/04/29 13:32:56;;;;;;;11.45;5.45;;;17.10;99.90;;;;;;5052402;28;20017;-90
2022/04/29 13:35:54;;;;;;;19.95;7.13;;;17.20;99.90;;;;;;5051948;28;20104;-89
2022/04/29 13:38:20;;;;;;;16.08;6.13;;;17.10;97.90;;;;;;5051178;28;20516;-89
2022/04/29 13:40:45;;;;;;;16.02;6.50;;;17.00;99.80;;;;;;5044744;28;20020;-89
2022/04/29 13:43:20;;;;;;;11.48;4.60;;;17.00;99.90;;;;;;5051775;28;20473;-91
2022/04/29 13:45:46;;;;;;;12.55;5.95;;;17.00;99.90;;;;;;5044566;28;20072;-91
2022/04/29 13:48:33;;;;;;;25.92;6.32;;;17.00;99.90;;;;;;5051091;28;20017;-89
2022/04/29 13:50:59;;;;;;;17.95;6.15;;;17.10;99.90;;;;;;5033247;28;20440;-89
2022/04/29 13:53:25;;;;;;;20.38;5.03;;;17.20;99.90;;;;;;5047888;28;20037;-89
2022/04/29 13:55:59;;;;;;;21.83;6.20;;;17.30;99.90;;;;;;5047991;28;20417;-89
2022/04/29 13:58:24;;;;;;;18.17;6.53;;;17.30;99.60;;;;;;5043138;28;20037;-88
2022/04/29 14:01:22;;;;;;;13.43;6.30;;;17.40;96.80;;;;;;5053795;28;20025;-90